createdAt,value
2019-04-01T00:00:23.660Z,5.78
2019-04-01T00:02:53.051Z,5.74
2019-04-01T00:05:22.529Z,5.71
2019-04-01T00:07:52.024Z,5.75
2019-04-01T00:10:21.416Z,5.74
2019-04-01T00:12:50.809Z,5.61
2019-04-01T00:15:20.190Z,5.52
2019-04-01T00:17:49.576Z,5.44
2019-04-01T00:20:18.943Z,5.49
2019-04-01T00:22:48.381Z,5.56
2019-04-01T00:25:17.993Z,5.50
2019-04-01T00:27:47.364Z,5.46
2019-04-01T00:30:16.683Z,5.42
2019-04-01T00:32:46.053Z,5.50
2019-04-01T00:35:15.357Z,5.27
2019-04-01T00:37:44.774Z,5.38
2019-04-01T00:40:14.240Z,5.32
2019-04-01T00:42:54.892Z,5.25
2019-04-01T00:45:24.595Z,5.41
2019-04-01T00:47:54.055Z,5.20
2019-04-01T00:50:23.453Z,5.14
2019-04-01T00:52:52.817Z,5.23
2019-04-01T00:55:22.188Z,5.18
2019-04-01T00:57:51.575Z,5.12
2019-04-01T01:00:21.060Z,5.28
2019-04-01T01:02:50.424Z,5.15
2019-04-01T01:05:19.806Z,5.06
2019-04-01T01:07:49.315Z,5.11
2019-04-01T01:10:18.728Z,4.96
2019-04-01T01:12:48.084Z,4.98
2019-04-01T01:15:17.504Z,4.98
2019-04-01T01:17:46.890Z,5.00
2019-04-01T01:20:16.406Z,4.92
2019-04-01T01:22:45.741Z,5.04
2019-04-01T01:25:15.090Z,5.04
2019-04-01T01:27:44.505Z,5.08
2019-04-01T01:30:14.287Z,4.85
2019-04-01T01:32:43.584Z,4.86
2019-04-01T01:35:13.085Z,4.92
2019-04-01T01:37:42.310Z,4.88
2019-04-01T01:40:12.208Z,4.91
2019-04-01T01:42:41.529Z,4.88
2019-04-01T01:45:11.054Z,4.81
2019-04-01T01:47:40.476Z,4.86
2019-04-01T01:50:09.862Z,4.84
2019-04-01T01:52:39.188Z,4.66
2019-04-01T01:55:08.524Z,4.75
2019-04-01T01:57:37.935Z,4.82
2019-04-01T02:00:08.568Z,4.79
2019-04-01T02:02:37.976Z,4.70
2019-04-01T02:05:08.170Z,4.74
2019-04-01T02:07:37.743Z,4.77
2019-04-01T02:10:08.001Z,4.59
2019-04-01T02:12:37.442Z,4.56
2019-04-01T02:15:07.752Z,4.62
2019-04-01T02:17:37.081Z,4.70
2019-04-01T02:20:06.709Z,4.53
2019-04-01T02:22:36.198Z,4.48
2019-04-01T02:25:05.572Z,4.54
2019-04-01T02:27:34.986Z,4.46
2019-04-01T02:30:04.876Z,4.49
2019-04-01T02:32:34.356Z,4.35
2019-04-01T02:35:03.848Z,4.32
2019-04-01T02:37:33.256Z,4.48
2019-04-01T02:40:02.641Z,4.30
2019-04-01T02:42:32.009Z,4.43
2019-04-01T02:45:01.327Z,4.44
2019-04-01T02:47:30.763Z,4.36
2019-04-01T02:50:00.402Z,4.36
2019-04-01T02:52:29.834Z,4.33
2019-04-01T02:54:59.129Z,4.29
2019-04-01T02:57:28.401Z,4.28
2019-04-01T02:59:57.691Z,4.17
2019-04-01T03:02:27.034Z,4.17
2019-04-01T03:04:56.280Z,4.19
2019-04-01T03:07:25.595Z,4.06
2019-04-01T03:09:54.928Z,4.23
2019-04-01T03:12:24.232Z,4.13
2019-04-01T03:14:53.486Z,4.20
2019-04-01T03:17:22.810Z,4.17
2019-04-01T03:19:53.851Z,4.18
2019-04-01T03:22:23.300Z,4.06
2019-04-01T03:24:52.789Z,4.21
2019-04-01T03:27:24.871Z,4.11
2019-04-01T03:29:54.327Z,4.13
2019-04-01T03:32:23.666Z,4.04
2019-04-01T03:34:53.278Z,4.14
2019-04-01T03:37:23.129Z,4.10
2019-04-01T03:39:52.643Z,4.00
2019-04-01T03:42:22.150Z,3.89
2019-04-01T03:44:54.998Z,3.96
2019-04-01T03:47:22.752Z,3.92
2019-04-01T03:49:53.940Z,3.93
2019-04-01T03:52:23.400Z,3.87
2019-04-01T03:54:54.582Z,3.93
2019-04-01T03:57:24.146Z,4.00
2019-04-01T03:59:53.488Z,3.84
2019-04-01T04:02:22.926Z,3.80
2019-04-01T04:04:54.058Z,3.78
2019-04-01T04:07:23.603Z,3.93
2019-04-01T04:09:53.081Z,3.77
2019-04-01T04:12:22.569Z,3.76
2019-04-01T04:14:53.149Z,3.75
2019-04-01T04:17:22.742Z,3.69
2019-04-01T04:19:52.419Z,3.54
2019-04-01T04:22:21.773Z,3.63
2019-04-01T04:24:51.267Z,3.59
2019-04-01T04:27:20.689Z,3.56
2019-04-01T04:29:52.715Z,3.64
2019-04-01T04:32:22.256Z,3.66
2019-04-01T04:34:51.580Z,3.63
2019-04-01T04:37:21.000Z,3.64
2019-04-01T04:39:50.460Z,3.57
2019-04-01T04:42:26.426Z,3.63
2019-04-01T04:44:56.131Z,3.60
2019-04-01T04:47:31.617Z,3.53
2019-04-01T04:50:03.520Z,3.59
2019-04-01T04:52:32.841Z,3.67
2019-04-01T04:55:02.311Z,3.50
2019-04-01T04:57:31.877Z,3.45
2019-04-01T05:00:01.307Z,3.35
2019-04-01T05:02:30.765Z,3.41
2019-04-01T05:05:00.405Z,3.49
2019-04-01T05:07:31.564Z,3.43
2019-04-01T05:10:00.953Z,3.51
2019-04-01T05:12:30.358Z,3.56
2019-04-01T05:14:59.825Z,3.55
2019-04-01T05:18:24.737Z,3.50
2019-04-01T05:20:51.982Z,3.53
2019-04-01T05:23:21.763Z,3.58
2019-04-01T05:25:54.764Z,3.59
2019-04-01T05:28:29.318Z,3.66
2019-04-01T05:31:00.288Z,3.70
2019-04-01T05:33:31.435Z,3.71
2019-04-01T05:36:01.944Z,3.74
2019-04-01T05:38:33.698Z,3.74
2019-04-01T05:41:03.348Z,3.79
2019-04-01T05:43:32.776Z,3.87
2019-04-01T05:46:02.173Z,3.70
2019-04-01T05:48:32.029Z,3.83
2019-04-01T05:51:01.304Z,3.78
2019-04-01T05:53:31.134Z,4.01
2019-04-01T05:56:00.971Z,3.95
2019-04-01T05:58:30.837Z,4.19
2019-04-01T06:01:09.780Z,4.20
2019-04-01T06:03:40.858Z,4.32
2019-04-01T06:06:10.161Z,4.25
2019-04-01T06:08:39.985Z,4.40
2019-04-01T06:11:09.993Z,4.37
2019-04-01T06:13:39.386Z,4.37
2019-04-01T06:16:08.876Z,4.47
2019-04-01T06:18:38.279Z,4.62
2019-04-01T06:21:11.804Z,4.51
2019-04-01T06:23:43.217Z,4.75
2019-04-01T06:26:12.758Z,4.80
2019-04-01T06:28:42.061Z,4.95
2019-04-01T06:31:11.325Z,4.85
2019-04-01T06:33:40.706Z,5.05
2019-04-01T06:36:10.212Z,5.11
2019-04-01T06:38:39.581Z,5.40
2019-04-01T06:41:08.960Z,5.30
2019-04-01T06:43:38.248Z,5.37
2019-04-01T06:46:07.604Z,5.58
2019-04-01T06:48:36.902Z,5.74
2019-04-01T06:51:06.193Z,5.76
2019-04-01T06:53:35.664Z,5.80
2019-04-01T06:56:06.189Z,6.04
2019-04-01T06:58:36.069Z,6.04
2019-04-01T07:01:05.443Z,6.14
2019-04-01T07:03:34.728Z,6.16
2019-04-01T07:06:04.144Z,6.07
2019-04-01T07:08:33.480Z,6.34
2019-04-01T07:11:02.846Z,6.36
2019-04-01T07:13:32.245Z,6.27
2019-04-01T07:16:14.718Z,6.55
2019-04-01T07:18:32.608Z,6.67
2019-04-01T07:21:02.002Z,6.87
2019-04-01T07:23:31.640Z,6.92
2019-04-01T07:26:01.060Z,6.87
2019-04-01T07:28:30.455Z,6.93
2019-04-01T07:30:59.791Z,7.27
2019-04-01T07:33:29.191Z,7.26
2019-04-01T07:35:58.432Z,7.18
2019-04-01T07:38:27.821Z,7.28
2019-04-01T07:40:59.181Z,7.61
2019-04-01T07:43:29.297Z,7.44
2019-04-01T07:46:00.126Z,7.55
2019-04-01T07:48:29.456Z,7.55
2019-04-01T07:50:58.755Z,7.71
2019-04-01T07:53:28.160Z,7.96
2019-04-01T07:55:57.573Z,8.34
2019-04-01T07:58:26.945Z,8.34
2019-04-01T08:00:56.226Z,8.08
2019-04-01T08:03:25.647Z,8.08
2019-04-01T08:05:54.880Z,8.19
2019-04-01T08:08:24.175Z,8.20
2019-04-01T08:10:53.465Z,8.48
2019-04-01T08:13:22.707Z,8.83
2019-04-01T08:15:51.959Z,8.80
2019-04-01T08:18:21.226Z,8.84
2019-04-01T08:20:50.493Z,9.13
2019-04-01T08:23:19.853Z,9.28
2019-04-01T08:25:49.210Z,9.08
2019-04-01T08:28:18.445Z,9.18
2019-04-01T08:30:47.693Z,9.07
2019-04-01T08:33:16.984Z,9.47
2019-04-01T08:35:46.810Z,9.51
2019-04-01T08:38:16.115Z,9.84
2019-04-01T08:40:45.407Z,9.79
2019-04-01T08:43:14.914Z,9.80
2019-04-01T08:45:44.151Z,9.91
2019-04-01T08:48:13.455Z,9.90
2019-04-01T08:50:42.705Z,10.14
2019-04-01T08:53:12.087Z,10.09
2019-04-01T08:55:41.506Z,10.38
2019-04-01T08:58:10.707Z,10.40
2019-04-01T09:00:39.958Z,10.33
2019-04-01T09:03:09.265Z,10.56
2019-04-01T09:05:39.267Z,10.94
2019-04-01T09:08:08.549Z,10.99
2019-04-01T09:10:38.012Z,10.84
2019-04-01T09:13:07.270Z,10.72
2019-04-01T09:15:36.574Z,11.13
2019-04-01T09:18:05.891Z,11.09
2019-04-01T09:20:35.185Z,11.16
2019-04-01T09:23:04.423Z,11.16
2019-04-01T09:25:33.676Z,11.03
2019-04-01T09:28:02.958Z,11.01
2019-04-01T09:30:32.228Z,10.86
2019-04-01T09:33:01.500Z,11.09
2019-04-01T09:35:30.757Z,11.16
2019-04-01T09:38:00.066Z,11.67
2019-04-01T09:40:29.537Z,11.45
2019-04-01T09:42:58.836Z,11.73
2019-04-01T09:45:28.147Z,12.07
2019-04-01T09:47:57.397Z,11.79
2019-04-01T09:50:26.664Z,11.74
2019-04-01T09:52:55.921Z,11.95
2019-04-01T09:55:25.201Z,11.97
2019-04-01T09:57:54.455Z,12.05
2019-04-01T10:00:23.967Z,11.89
2019-04-01T10:02:53.236Z,12.17
2019-04-01T10:05:22.519Z,12.04
2019-04-01T10:07:51.955Z,12.58
2019-04-01T10:10:21.258Z,12.51
2019-04-01T10:12:50.512Z,12.28
2019-04-01T10:15:19.822Z,12.51
2019-04-01T10:17:49.187Z,12.38
2019-04-01T10:20:18.704Z,12.49
2019-04-01T10:22:47.988Z,12.49
2019-04-01T10:25:17.410Z,12.56
2019-04-01T10:27:46.685Z,12.84
2019-04-01T10:30:16.538Z,12.84
2019-04-01T10:32:46.011Z,12.59
2019-04-01T10:35:15.579Z,13.21
2019-04-01T10:37:44.844Z,13.19
2019-04-01T10:40:14.626Z,13.36
2019-04-01T10:42:43.995Z,13.22
2019-04-01T10:45:13.576Z,13.53
2019-04-01T10:47:43.172Z,13.39
2019-04-01T10:50:12.815Z,13.31
2019-04-01T10:52:44.040Z,13.02
2019-04-01T10:55:13.218Z,13.12
2019-04-01T10:57:43.674Z,13.08
2019-04-01T11:00:13.990Z,13.31
2019-04-01T11:02:43.299Z,13.54
2019-04-01T11:05:12.816Z,13.38
2019-04-01T11:07:42.204Z,13.23
2019-04-01T11:10:12.036Z,13.62
2019-04-01T11:12:41.379Z,13.62
2019-04-01T11:15:15.170Z,13.64
2019-04-01T11:17:43.902Z,13.39
2019-04-01T11:20:13.371Z,13.68
2019-04-01T11:22:42.682Z,13.79
2019-04-01T11:25:12.298Z,13.71
2019-04-01T11:27:41.611Z,14.05
2019-04-01T11:30:13.731Z,14.12
2019-04-01T11:32:42.741Z,14.13
2019-04-01T11:35:12.314Z,14.50
2019-04-01T11:37:42.008Z,14.72
2019-04-01T11:40:12.378Z,14.64
2019-04-01T11:42:42.145Z,14.29
2019-04-01T11:45:11.607Z,14.35
2019-04-01T11:47:41.174Z,14.39
2019-04-01T11:50:10.725Z,14.44
2019-04-01T11:52:40.080Z,14.52
2019-04-01T11:55:10.450Z,14.44
2019-04-01T11:57:40.730Z,14.55
2019-04-01T12:00:14.581Z,14.56
2019-04-01T12:02:44.012Z,14.81
2019-04-01T12:05:13.267Z,14.67
2019-04-01T12:07:42.518Z,14.58
2019-04-01T12:10:12.265Z,14.84
2019-04-01T12:12:41.691Z,14.98
2019-04-01T12:15:12.400Z,15.28
2019-04-01T12:17:42.256Z,14.81
2019-04-01T12:20:11.863Z,15.01
2019-04-01T12:22:45.214Z,14.93
2019-04-01T12:25:12.162Z,14.90
2019-04-01T12:27:41.452Z,15.05
2019-04-01T12:30:10.850Z,15.19
2019-04-01T12:32:40.169Z,15.15
2019-04-01T12:35:09.885Z,14.91
2019-04-01T12:37:39.231Z,15.31
2019-04-01T12:40:08.610Z,15.53
2019-04-01T12:42:37.975Z,15.57
2019-04-01T12:45:07.804Z,14.83
2019-04-01T12:47:37.070Z,15.43
2019-04-01T12:50:07.379Z,15.36
2019-04-01T12:52:36.697Z,15.40
2019-04-01T12:55:06.389Z,15.36
2019-04-01T12:57:35.628Z,15.53
2019-04-01T13:00:06.183Z,15.68
2019-04-01T13:02:35.459Z,15.61
2019-04-01T13:05:04.952Z,15.96
2019-04-01T13:07:34.241Z,15.90
2019-04-01T13:10:03.684Z,16.30
2019-04-01T13:12:32.932Z,16.28
2019-04-01T13:15:02.191Z,15.91
2019-04-01T13:17:31.493Z,15.53
2019-04-01T13:20:00.775Z,16.18
2019-04-01T13:22:30.030Z,16.56
2019-04-01T13:25:01.491Z,16.31
2019-04-01T13:27:30.502Z,16.35
2019-04-01T13:29:59.738Z,16.16
2019-04-01T13:32:29.006Z,16.41
2019-04-01T13:34:58.303Z,16.32
2019-04-01T13:37:27.673Z,16.73
2019-04-01T13:39:56.884Z,16.32
2019-04-01T13:42:26.134Z,16.27
2019-04-01T13:44:55.483Z,16.38
2019-04-01T13:47:24.765Z,16.20
2019-04-01T13:49:54.071Z,16.64
2019-04-01T13:52:23.356Z,16.15
2019-04-01T13:54:52.760Z,16.02
2019-04-01T13:57:22.016Z,16.28
2019-04-01T13:59:51.905Z,16.48
2019-04-01T14:02:21.422Z,16.27
2019-04-01T14:04:50.773Z,16.39
2019-04-01T14:07:21.280Z,16.52
2019-04-01T14:09:54.817Z,16.43
2019-04-01T14:12:21.916Z,16.28
2019-04-01T14:14:51.246Z,16.36
2019-04-01T14:17:20.652Z,16.55
2019-04-01T14:19:49.993Z,16.70
2019-04-01T14:22:20.553Z,16.83
2019-04-01T14:24:50.076Z,16.85
2019-04-01T14:27:19.395Z,16.65
2019-04-01T14:29:48.674Z,16.71
2019-04-01T14:32:18.492Z,16.32
2019-04-01T14:34:50.357Z,16.56
2019-04-01T14:37:25.058Z,16.84
2019-04-01T14:39:49.825Z,16.57
2019-04-01T14:42:19.103Z,16.97
2019-04-01T14:44:58.300Z,16.92
2019-04-01T14:47:28.055Z,16.71
2019-04-01T14:49:57.424Z,16.66
2019-04-01T14:52:32.497Z,16.63
2019-04-01T14:54:57.750Z,16.90
2019-04-01T14:57:26.968Z,16.69
2019-04-01T14:59:56.482Z,16.74
2019-04-01T15:02:25.866Z,16.69
2019-04-01T15:04:55.094Z,16.79
2019-04-01T15:07:24.355Z,16.87
2019-04-01T15:09:53.691Z,16.95
2019-04-01T15:12:22.971Z,16.92
2019-04-01T15:14:52.351Z,16.96
2019-04-01T15:17:21.614Z,17.14
2019-04-01T15:19:50.889Z,17.31
2019-04-01T15:22:20.196Z,17.21
2019-04-01T15:24:49.506Z,16.92
2019-04-01T15:27:22.332Z,16.78
2019-04-01T15:29:49.958Z,16.89
2019-04-01T15:32:19.351Z,16.98
2019-04-01T15:34:48.669Z,16.88
2019-04-01T15:37:17.950Z,16.92
2019-04-01T15:39:47.653Z,17.01
2019-04-01T15:42:18.312Z,16.88
2019-04-01T15:44:47.591Z,16.92
2019-04-01T15:47:16.874Z,17.18
2019-04-01T15:49:46.218Z,16.83
2019-04-01T15:52:15.665Z,16.84
2019-04-01T15:54:44.934Z,16.76
2019-04-01T15:57:15.379Z,16.68
2019-04-01T15:59:44.950Z,16.85
2019-04-01T16:02:14.206Z,16.89
2019-04-01T16:04:43.460Z,16.85
2019-04-01T16:07:12.766Z,16.64
2019-04-01T16:09:42.101Z,16.82
2019-04-01T16:12:11.403Z,16.70
2019-04-01T16:14:40.867Z,16.73
2019-04-01T16:17:10.164Z,16.64
2019-04-01T16:19:39.439Z,16.71
2019-04-01T16:22:08.716Z,16.75
2019-04-01T16:24:37.993Z,16.47
2019-04-01T16:27:07.233Z,16.57
2019-04-01T16:29:36.511Z,16.61
2019-04-01T16:32:05.793Z,16.58
2019-04-01T16:34:35.198Z,16.50
2019-04-01T16:37:04.566Z,16.47
2019-04-01T16:39:33.888Z,16.43
2019-04-01T16:42:03.163Z,16.35
2019-04-01T16:44:32.431Z,16.24
2019-04-01T16:47:01.672Z,16.41
2019-04-01T16:49:30.936Z,16.23
2019-04-01T16:52:00.632Z,16.18
2019-04-01T16:54:30.015Z,16.16
2019-04-01T16:56:59.264Z,16.11
2019-04-01T16:59:28.615Z,16.09
2019-04-01T17:01:57.970Z,16.05
2019-04-01T17:04:28.338Z,15.93
2019-04-01T17:06:57.633Z,15.86
2019-04-01T17:09:27.113Z,15.89
2019-04-01T17:11:56.423Z,15.80
2019-04-01T17:14:25.741Z,15.66
2019-04-01T17:16:55.229Z,15.65
2019-04-01T17:19:27.681Z,15.50
2019-04-01T17:21:55.575Z,15.46
2019-04-01T17:24:24.991Z,15.36
2019-04-01T17:27:11.745Z,15.27
2019-04-01T17:29:43.073Z,15.20
2019-04-01T17:32:12.542Z,15.17
2019-04-01T17:34:41.844Z,15.06
2019-04-01T17:37:11.451Z,15.01
2019-04-01T17:39:40.730Z,14.86
2019-04-01T17:42:10.050Z,14.82
2019-04-01T17:44:39.342Z,14.77
2019-04-01T17:47:08.734Z,14.67
2019-04-01T17:49:38.068Z,14.60
2019-04-01T17:52:07.430Z,14.59
2019-04-01T17:54:39.918Z,14.51
2019-04-01T17:57:07.867Z,14.43
2019-04-01T17:59:37.294Z,14.34
2019-04-01T18:02:11.583Z,14.17
2019-04-01T18:04:41.021Z,14.17
2019-04-01T18:07:10.378Z,14.06
2019-04-01T18:09:39.671Z,13.93
2019-04-01T18:12:09.145Z,13.78
2019-04-01T18:14:38.438Z,13.78
2019-04-01T18:17:07.774Z,13.67
2019-04-01T18:19:37.013Z,13.60
2019-04-01T18:22:09.783Z,13.54
2019-04-01T18:24:37.460Z,13.50
2019-04-01T18:27:06.763Z,13.37
2019-04-01T18:29:36.100Z,13.39
2019-04-01T18:32:05.426Z,13.30
2019-04-01T18:34:34.763Z,13.25
2019-04-01T18:37:04.063Z,13.18
2019-04-01T18:39:47.126Z,13.06
2019-04-01T18:42:04.460Z,13.11
2019-04-01T18:44:33.764Z,13.01
2019-04-01T18:47:04.032Z,12.92
2019-04-01T18:49:33.407Z,12.84
2019-04-01T18:52:02.746Z,12.77
2019-04-01T18:54:32.092Z,12.68
2019-04-01T18:57:03.628Z,12.59
2019-04-01T18:59:32.492Z,12.61
2019-04-01T19:02:01.855Z,12.55
2019-04-01T19:04:34.126Z,12.46
2019-04-01T19:07:04.233Z,12.37
2019-04-01T19:09:34.159Z,12.37
2019-04-01T19:12:04.726Z,12.38
2019-04-01T19:14:34.246Z,12.29
2019-04-01T19:17:03.643Z,12.21
2019-04-01T19:19:32.958Z,12.09
2019-04-01T19:22:02.271Z,12.08
2019-04-01T19:24:31.592Z,12.02
2019-04-01T19:27:00.916Z,11.95
2019-04-01T19:29:30.227Z,11.91
2019-04-01T19:31:59.585Z,11.88
2019-04-01T19:34:29.186Z,11.87
2019-04-01T19:36:59.034Z,11.81
2019-04-01T19:39:30.237Z,11.74
2019-04-01T19:41:59.699Z,11.73
2019-04-01T19:44:29.057Z,11.64
2019-04-01T19:46:58.416Z,11.62
2019-04-01T19:49:27.835Z,11.58
2019-04-01T19:51:57.266Z,11.48
2019-04-01T19:54:31.487Z,11.36
2019-04-01T19:56:58.288Z,11.31
2019-04-01T19:59:28.455Z,11.32
2019-04-01T20:01:58.325Z,11.25
2019-04-01T20:04:27.934Z,11.17
2019-04-01T20:06:57.269Z,11.18
2019-04-01T20:09:26.601Z,11.19
2019-04-01T20:11:58.383Z,11.25
2019-04-01T20:14:28.128Z,11.03
2019-04-01T20:16:57.455Z,11.04
2019-04-01T20:19:26.713Z,10.96
2019-04-01T20:21:56.274Z,10.84
2019-04-01T20:24:26.675Z,10.86
2019-04-01T20:26:55.964Z,10.89
2019-04-01T20:29:25.295Z,10.82
2019-04-01T20:31:54.567Z,10.65
2019-04-01T20:34:23.889Z,10.74
2019-04-01T20:36:53.243Z,10.57
2019-04-01T20:39:22.507Z,10.70
2019-04-01T20:41:51.942Z,10.75
2019-04-01T20:44:21.188Z,10.55
2019-04-01T20:46:50.567Z,10.41
2019-04-01T20:49:19.860Z,10.40
2019-04-01T20:51:49.174Z,10.38
2019-04-01T20:54:18.535Z,10.32
2019-04-01T20:56:48.229Z,10.34
2019-04-01T20:59:18.449Z,10.40
2019-04-01T21:01:47.742Z,10.37
2019-04-01T21:04:17.170Z,10.40
2019-04-01T21:06:46.528Z,10.40
2019-04-01T21:09:16.373Z,10.43
2019-04-01T21:11:46.036Z,10.41
2019-04-01T21:14:15.549Z,10.38
2019-04-01T21:16:44.849Z,10.38
2019-04-01T21:19:14.135Z,10.25
2019-04-01T21:21:43.394Z,10.09
2019-04-01T21:24:12.659Z,10.11
2019-04-01T21:26:41.932Z,10.17
2019-04-01T21:29:11.240Z,10.08
2019-04-01T21:31:40.495Z,10.12
2019-04-01T21:34:10.266Z,10.13
2019-04-01T21:36:40.397Z,10.09
2019-04-01T21:39:09.695Z,9.97
2019-04-01T21:41:39.107Z,10.02
2019-04-01T21:44:08.360Z,9.91
2019-04-01T21:46:37.633Z,9.87
2019-04-01T21:49:07.172Z,9.79
2019-04-01T21:51:37.295Z,9.86
2019-04-01T21:54:06.601Z,9.75
2019-04-01T21:56:35.853Z,9.76
2019-04-01T21:59:05.238Z,9.68
2019-04-01T22:01:34.602Z,9.71
2019-04-01T22:04:04.230Z,9.52
2019-04-01T22:06:33.524Z,9.51
2019-04-01T22:09:05.042Z,9.48
2019-04-01T22:11:34.323Z,9.57
2019-04-01T22:14:03.577Z,9.46
2019-04-01T22:16:32.868Z,9.37
2019-04-01T22:19:02.104Z,9.29
2019-04-01T22:21:31.433Z,9.11
2019-04-01T22:24:00.696Z,9.20
2019-04-01T22:26:29.952Z,9.26
2019-04-01T22:28:59.208Z,9.09
2019-04-01T22:31:28.482Z,8.83
2019-04-01T22:33:57.753Z,8.93
2019-04-01T22:36:31.267Z,8.91
2019-04-01T22:38:57.958Z,8.89
2019-04-01T22:41:29.186Z,8.88
2019-04-01T22:43:58.257Z,8.77
2019-04-01T22:46:27.552Z,8.76
2019-04-01T22:48:56.808Z,8.76
2019-04-01T22:51:26.055Z,8.76
2019-04-01T22:53:55.432Z,8.70
2019-04-01T22:56:24.734Z,8.67
2019-04-01T22:58:53.982Z,8.63
2019-04-01T23:01:23.248Z,8.68
2019-04-01T23:03:52.504Z,8.68
2019-04-01T23:06:21.804Z,8.68
2019-04-01T23:08:51.026Z,8.65
2019-04-01T23:11:20.362Z,8.63
2019-04-01T23:13:49.570Z,8.57
2019-04-01T23:16:18.823Z,8.56
2019-04-01T23:18:48.053Z,8.51
2019-04-01T23:21:17.296Z,8.33
2019-04-01T23:23:46.534Z,8.33
2019-04-01T23:26:15.782Z,8.36
2019-04-01T23:28:45.071Z,8.44
2019-04-01T23:31:14.282Z,8.24
2019-04-01T23:33:44.953Z,8.20
2019-04-01T23:36:14.456Z,8.13
2019-04-01T23:38:43.768Z,7.99
2019-04-01T23:41:13.031Z,8.01
2019-04-01T23:43:42.345Z,8.07
2019-04-01T23:46:11.592Z,8.12
2019-04-01T23:48:42.124Z,7.99
2019-04-01T23:51:11.611Z,8.02
2019-04-01T23:53:41.025Z,8.04
2019-04-01T23:56:10.336Z,8.03
2019-04-01T23:58:39.666Z,7.86
